sensor_id;sensor_type;location;lat;lon;timestamp;temperature;humidity
7194;DHT22;3638;48.820;9.244;2023-03-04T00:00:24;1.50;99.90
7194;DHT22;3638;48.820;9.244;2023-03-04T00:02:51;1.40;99.90
7194;DHT22;3638;48.820;9.244;2023-03-04T00:05:18;1.40;99.90
7194;DHT22;3638;48.820;9.244;2023-03-04T00:07:46;1.40;99.90
7194;DHT22;3638;48.820;9.244;2023-03-04T00:10:13;1.30;99.90
7194;DHT22;3638;48.820;9.244;2023-03-04T00:12:42;1.30;99.90
7194;DHT22;3638;48.820;9.244;2023-03-04T00:15:09;1.30;99.90
7194;DHT22;3638;48.820;9.244;2023-03-04T00:17:36;1.30;99.90
7194;DHT22;3638;48.820;9.244;2023-03-04T00:20:04;1.30;99.90
7194;DHT22;3638;48.820;9.244;2023-03-04T00:24:59;1.40;99.90
7194;DHT22;3638;48.820;9.244;2023-03-04T00:27:26;1.30;99.90
7194;DHT22;3638;48.820;9.244;2023-03-04T00:29:54;1.30;99.90
7194;DHT22;3638;48.820;9.244;2023-03-04T00:32:21;1.30;99.90
7194;DHT22;3638;48.820;9.244;2023-03-04T00:34:48;1.40;99.90
7194;DHT22;3638;48.820;9.244;2023-03-04T00:37:15;1.30;99.90
7194;DHT22;3638;48.820;9.244;2023-03-04T00:39:42;1.30;99.90
7194;DHT22;3638;48.820;9.244;2023-03-04T00:42:09;1.20;99.90
7194;DHT22;3638;48.820;9.244;2023-03-04T00:44:36;1.10;99.90
7194;DHT22;3638;48.820;9.244;2023-03-04T00:47:04;1.00;99.90
7194;DHT22;3638;48.820;9.244;2023-03-04T00:49:32;1.00;99.90
7194;DHT22;3638;48.820;9.244;2023-03-04T00:51:59;1.70;99.90
7194;DHT22;3638;48.820;9.244;2023-03-04T00:54:25;0.90;99.90
7194;DHT22;3638;48.820;9.244;2023-03-04T00:56:52;0.90;99.90
7194;DHT22;3638;48.820;9.244;2023-03-04T00:59:19;0.90;99.90
7194;DHT22;3638;48.820;9.244;2023-03-04T01:01:46;0.80;99.90
7194;DHT22;3638;48.820;9.244;2023-03-04T01:04:14;0.80;99.90
7194;DHT22;3638;48.820;9.244;2023-03-04T01:06:41;0.90;99.90
7194;DHT22;3638;48.820;9.244;2023-03-04T01:09:08;1.00;99.90
7194;DHT22;3638;48.820;9.244;2023-03-04T01:11:35;1.00;99.90
7194;DHT22;3638;48.820;9.244;2023-03-04T01:14:02;1.10;99.90
7194;DHT22;3638;48.820;9.244;2023-03-04T01:16:29;1.20;99.90
7194;DHT22;3638;48.820;9.244;2023-03-04T01:18:55;1.20;99.90
7194;DHT22;3638;48.820;9.244;2023-03-04T01:21:24;1.20;99.90
7194;DHT22;3638;48.820;9.244;2023-03-04T01:23:50;1.20;99.90
7194;DHT22;3638;48.820;9.244;2023-03-04T01:26:17;1.20;99.90
7194;DHT22;3638;48.820;9.244;2023-03-04T01:28:44;1.20;99.90
7194;DHT22;3638;48.820;9.244;2023-03-04T01:31:11;1.10;99.90
7194;DHT22;3638;48.820;9.244;2023-03-04T01:33:38;1.00;99.90
7194;DHT22;3638;48.820;9.244;2023-03-04T01:36:05;0.80;99.90
7194;DHT22;3638;48.820;9.244;2023-03-04T01:38:34;0.80;99.90
7194;DHT22;3638;48.820;9.244;2023-03-04T01:41:01;0.80;99.90
7194;DHT22;3638;48.820;9.244;2023-03-04T01:43:29;0.80;99.90
7194;DHT22;3638;48.820;9.244;2023-03-04T01:45:57;0.80;99.90
7194;DHT22;3638;48.820;9.244;2023-03-04T01:48:28;0.70;99.90
7194;DHT22;3638;48.820;9.244;2023-03-04T01:50:58;0.80;99.90
7194;DHT22;3638;48.820;9.244;2023-03-04T01:53:28;0.70;99.90
7194;DHT22;3638;48.820;9.244;2023-03-04T01:56:00;0.70;99.90
7194;DHT22;3638;48.820;9.244;2023-03-04T01:58:30;0.70;99.90
7194;DHT22;3638;48.820;9.244;2023-03-04T02:00:59;0.70;99.90
7194;DHT22;3638;48.820;9.244;2023-03-04T02:03:26;0.70;99.90
7194;DHT22;3638;48.820;9.244;2023-03-04T02:05:54;0.60;99.90
7194;DHT22;3638;48.820;9.244;2023-03-04T02:08:23;0.60;99.90
7194;DHT22;3638;48.820;9.244;2023-03-04T02:10:51;0.60;99.90
7194;DHT22;3638;48.820;9.244;2023-03-04T02:13:20;0.60;99.90
7194;DHT22;3638;48.820;9.244;2023-03-04T02:15:47;0.50;99.90
7194;DHT22;3638;48.820;9.244;2023-03-04T02:18:16;0.50;99.90
7194;DHT22;3638;48.820;9.244;2023-03-04T02:20:49;0.50;99.90
7194;DHT22;3638;48.820;9.244;2023-03-04T02:23:26;0.40;99.90
7194;DHT22;3638;48.820;9.244;2023-03-04T02:26:12;0.40;99.90
7194;DHT22;3638;48.820;9.244;2023-03-04T02:28:40;0.40;99.90
7194;DHT22;3638;48.820;9.244;2023-03-04T02:31:19;0.40;99.90
7194;DHT22;3638;48.820;9.244;2023-03-04T02:33:50;0.40;99.90
7194;DHT22;3638;48.820;9.244;2023-03-04T02:36:17;0.60;99.90
7194;DHT22;3638;48.820;9.244;2023-03-04T02:38:45;0.60;99.90
7194;DHT22;3638;48.820;9.244;2023-03-04T02:41:15;0.60;99.90
7194;DHT22;3638;48.820;9.244;2023-03-04T02:43:44;0.50;99.90
7194;DHT22;3638;48.820;9.244;2023-03-04T02:46:12;0.40;99.90
7194;DHT22;3638;48.820;9.244;2023-03-04T02:48:39;0.40;99.90
7194;DHT22;3638;48.820;9.244;2023-03-04T02:51:06;0.30;99.90
7194;DHT22;3638;48.820;9.244;2023-03-04T02:53:33;0.30;99.90
7194;DHT22;3638;48.820;9.244;2023-03-04T02:56:00;0.20;99.90
7194;DHT22;3638;48.820;9.244;2023-03-04T02:58:28;0.20;99.90
7194;DHT22;3638;48.820;9.244;2023-03-04T03:00:56;0.20;99.90
7194;DHT22;3638;48.820;9.244;2023-03-04T03:03:23;0.20;99.90
7194;DHT22;3638;48.820;9.244;2023-03-04T03:05:50;0.30;99.90
7194;DHT22;3638;48.820;9.244;2023-03-04T03:08:17;0.30;99.90
7194;DHT22;3638;48.820;9.244;2023-03-04T03:10:44;0.40;99.90
7194;DHT22;3638;48.820;9.244;2023-03-04T03:13:11;0.80;99.90
7194;DHT22;3638;48.820;9.244;2023-03-04T03:15:39;0.30;99.90
7194;DHT22;3638;48.820;9.244;2023-03-04T03:18:07;0.30;99.90
7194;DHT22;3638;48.820;9.244;2023-03-04T03:20:34;0.30;99.90
7194;DHT22;3638;48.820;9.244;2023-03-04T03:23:01;0.30;99.90
7194;DHT22;3638;48.820;9.244;2023-03-04T03:25:28;0.20;99.90
7194;DHT22;3638;48.820;9.244;2023-03-04T03:27:55;0.10;99.90
7194;DHT22;3638;48.820;9.244;2023-03-04T03:30:22;0.10;99.90
7194;DHT22;3638;48.820;9.244;2023-03-04T03:32:50;-0.10;99.90
7194;DHT22;3638;48.820;9.244;2023-03-04T03:35:18;-0.30;99.90
7194;DHT22;3638;48.820;9.244;2023-03-04T03:37:45;-0.30;99.90
7194;DHT22;3638;48.820;9.244;2023-03-04T03:40:13;-0.20;99.90
7194;DHT22;3638;48.820;9.244;2023-03-04T03:42:40;-0.20;99.90
7194;DHT22;3638;48.820;9.244;2023-03-04T03:45:08;-0.30;99.90
7194;DHT22;3638;48.820;9.244;2023-03-04T03:47:35;-0.40;99.90
7194;DHT22;3638;48.820;9.244;2023-03-04T03:50:04;-0.50;99.90
7194;DHT22;3638;48.820;9.244;2023-03-04T03:52:32;-0.50;99.90
7194;DHT22;3638;48.820;9.244;2023-03-04T03:54:58;-0.40;99.90
7194;DHT22;3638;48.820;9.244;2023-03-04T03:57:27;-0.50;99.90
7194;DHT22;3638;48.820;9.244;2023-03-04T03:59:54;-0.60;99.90
7194;DHT22;3638;48.820;9.244;2023-03-04T04:02:21;-0.60;99.90
7194;DHT22;3638;48.820;9.244;2023-03-04T04:04:48;-0.60;99.90
7194;DHT22;3638;48.820;9.244;2023-03-04T04:07:17;-0.60;99.90
7194;DHT22;3638;48.820;9.244;2023-03-04T04:09:44;-0.60;99.90
7194;DHT22;3638;48.820;9.244;2023-03-04T04:12:12;-0.70;99.90
7194;DHT22;3638;48.820;9.244;2023-03-04T04:14:41;-0.80;99.90
7194;DHT22;3638;48.820;9.244;2023-03-04T04:17:08;-0.90;99.90
7194;DHT22;3638;48.820;9.244;2023-03-04T04:19:35;-0.90;99.90
7194;DHT22;3638;48.820;9.244;2023-03-04T04:22:04;-0.80;99.90
7194;DHT22;3638;48.820;9.244;2023-03-04T04:24:33;-0.80;99.90
7194;DHT22;3638;48.820;9.244;2023-03-04T04:27:01;-0.80;99.90
7194;DHT22;3638;48.820;9.244;2023-03-04T04:29:29;-0.90;99.90
7194;DHT22;3638;48.820;9.244;2023-03-04T04:31:56;-0.90;99.90
7194;DHT22;3638;48.820;9.244;2023-03-04T04:34:23;-1.00;99.90
7194;DHT22;3638;48.820;9.244;2023-03-04T04:36:50;-1.00;99.90
7194;DHT22;3638;48.820;9.244;2023-03-04T04:39:17;-1.10;99.90
7194;DHT22;3638;48.820;9.244;2023-03-04T04:41:45;-1.20;99.90
7194;DHT22;3638;48.820;9.244;2023-03-04T04:44:13;-1.30;99.90
7194;DHT22;3638;48.820;9.244;2023-03-04T04:46:41;-1.30;99.90
7194;DHT22;3638;48.820;9.244;2023-03-04T04:49:08;-1.30;99.90
7194;DHT22;3638;48.820;9.244;2023-03-04T04:51:37;-1.30;99.90
7194;DHT22;3638;48.820;9.244;2023-03-04T04:54:05;-1.30;99.90
7194;DHT22;3638;48.820;9.244;2023-03-04T04:56:32;-1.20;99.90
7194;DHT22;3638;48.820;9.244;2023-03-04T04:59:03;-1.10;99.90
7194;DHT22;3638;48.820;9.244;2023-03-04T05:01:31;-1.10;99.90
7194;DHT22;3638;48.820;9.244;2023-03-04T05:03:58;-1.10;99.90
7194;DHT22;3638;48.820;9.244;2023-03-04T05:06:26;-1.10;99.90
7194;DHT22;3638;48.820;9.244;2023-03-04T05:08:53;-1.10;99.90
7194;DHT22;3638;48.820;9.244;2023-03-04T05:11:20;-1.20;99.90
7194;DHT22;3638;48.820;9.244;2023-03-04T05:13:48;-1.30;99.90
7194;DHT22;3638;48.820;9.244;2023-03-04T05:16:16;-1.30;99.90
7194;DHT22;3638;48.820;9.244;2023-03-04T05:18:44;-1.40;99.90
7194;DHT22;3638;48.820;9.244;2023-03-04T05:21:11;-1.30;99.90
7194;DHT22;3638;48.820;9.244;2023-03-04T05:23:39;-1.30;99.90
7194;DHT22;3638;48.820;9.244;2023-03-04T05:26:08;-1.40;99.90
7194;DHT22;3638;48.820;9.244;2023-03-04T05:28:37;-1.30;99.90
7194;DHT22;3638;48.820;9.244;2023-03-04T05:31:04;-1.30;99.90
7194;DHT22;3638;48.820;9.244;2023-03-04T05:33:33;-1.30;99.90
7194;DHT22;3638;48.820;9.244;2023-03-04T05:36:00;-1.30;99.90
7194;DHT22;3638;48.820;9.244;2023-03-04T05:38:28;-1.30;99.90
7194;DHT22;3638;48.820;9.244;2023-03-04T05:40:56;-1.30;99.90
7194;DHT22;3638;48.820;9.244;2023-03-04T05:43:24;-1.30;99.90
7194;DHT22;3638;48.820;9.244;2023-03-04T05:45:52;-1.30;99.90
7194;DHT22;3638;48.820;9.244;2023-03-04T05:48:19;-1.20;99.90
7194;DHT22;3638;48.820;9.244;2023-03-04T05:50:52;-1.20;99.90
7194;DHT22;3638;48.820;9.244;2023-03-04T05:53:19;-1.20;99.90
7194;DHT22;3638;48.820;9.244;2023-03-04T05:55:46;-1.10;99.90
7194;DHT22;3638;48.820;9.244;2023-03-04T05:58:14;-1.10;99.90
7194;DHT22;3638;48.820;9.244;2023-03-04T06:00:41;-1.00;99.90
7194;DHT22;3638;48.820;9.244;2023-03-04T06:03:13;-1.00;99.90
7194;DHT22;3638;48.820;9.244;2023-03-04T06:05:41;-0.90;99.90
7194;DHT22;3638;48.820;9.244;2023-03-04T06:08:09;-1.00;99.90
7194;DHT22;3638;48.820;9.244;2023-03-04T06:10:37;-1.00;99.90
7194;DHT22;3638;48.820;9.244;2023-03-04T06:13:05;-0.90;99.90
7194;DHT22;3638;48.820;9.244;2023-03-04T06:15:32;-0.90;99.90
7194;DHT22;3638;48.820;9.244;2023-03-04T06:17:59;-0.90;99.90
7194;DHT22;3638;48.820;9.244;2023-03-04T06:20:25;-0.90;99.90
7194;DHT22;3638;48.820;9.244;2023-03-04T06:22:52;-0.80;99.90
7194;DHT22;3638;48.820;9.244;2023-03-04T06:25:20;-0.70;99.90
7194;DHT22;3638;48.820;9.244;2023-03-04T06:27:47;-0.70;99.90
7194;DHT22;3638;48.820;9.244;2023-03-04T06:30:14;-0.70;99.90
7194;DHT22;3638;48.820;9.244;2023-03-04T06:32:41;-0.60;99.90
7194;DHT22;3638;48.820;9.244;2023-03-04T06:35:10;-0.50;99.90
7194;DHT22;3638;48.820;9.244;2023-03-04T06:37:37;-0.50;99.90
7194;DHT22;3638;48.820;9.244;2023-03-04T06:40:06;-0.40;99.90
7194;DHT22;3638;48.820;9.244;2023-03-04T06:42:35;-0.40;99.90
7194;DHT22;3638;48.820;9.244;2023-03-04T06:45:03;-0.30;99.90
7194;DHT22;3638;48.820;9.244;2023-03-04T06:47:31;-0.30;99.90
7194;DHT22;3638;48.820;9.244;2023-03-04T06:49:58;-0.30;99.90
7194;DHT22;3638;48.820;9.244;2023-03-04T06:52:25;-0.10;99.90
7194;DHT22;3638;48.820;9.244;2023-03-04T06:54:52;-0.10;99.90
7194;DHT22;3638;48.820;9.244;2023-03-04T06:57:19;0.00;99.90
7194;DHT22;3638;48.820;9.244;2023-03-04T06:59:47;0.00;99.90
7194;DHT22;3638;48.820;9.244;2023-03-04T07:02:14;0.30;99.90
7194;DHT22;3638;48.820;9.244;2023-03-04T07:04:40;0.30;99.90
7194;DHT22;3638;48.820;9.244;2023-03-04T07:07:07;0.30;99.90
7194;DHT22;3638;48.820;9.244;2023-03-04T07:09:34;0.40;99.90
7194;DHT22;3638;48.820;9.244;2023-03-04T07:12:01;0.50;99.90
7194;DHT22;3638;48.820;9.244;2023-03-04T07:14:28;0.50;99.90
7194;DHT22;3638;48.820;9.244;2023-03-04T07:16:57;0.70;99.90
7194;DHT22;3638;48.820;9.244;2023-03-04T07:19:24;0.80;99.90
7194;DHT22;3638;48.820;9.244;2023-03-04T07:21:50;1.00;99.90
7194;DHT22;3638;48.820;9.244;2023-03-04T07:24:17;0.90;99.90
7194;DHT22;3638;48.820;9.244;2023-03-04T07:26:44;1.00;99.90
7194;DHT22;3638;48.820;9.244;2023-03-04T07:29:11;1.20;99.90
7194;DHT22;3638;48.820;9.244;2023-03-04T07:31:38;1.20;99.90
7194;DHT22;3638;48.820;9.244;2023-03-04T07:34:09;1.30;99.90
7194;DHT22;3638;48.820;9.244;2023-03-04T07:36:37;1.20;99.90
7194;DHT22;3638;48.820;9.244;2023-03-04T07:39:04;1.00;99.90
7194;DHT22;3638;48.820;9.244;2023-03-04T07:41:32;1.20;99.90
7194;DHT22;3638;48.820;9.244;2023-03-04T07:44:01;1.20;99.90
7194;DHT22;3638;48.820;9.244;2023-03-04T07:46:29;1.40;99.90
7194;DHT22;3638;48.820;9.244;2023-03-04T07:48:56;1.60;99.90
7194;DHT22;3638;48.820;9.244;2023-03-04T07:51:25;1.50;99.90
7194;DHT22;3638;48.820;9.244;2023-03-04T07:53:55;1.50;99.90
7194;DHT22;3638;48.820;9.244;2023-03-04T07:56:24;1.40;99.90
7194;DHT22;3638;48.820;9.244;2023-03-04T07:58:53;1.20;99.90
7194;DHT22;3638;48.820;9.244;2023-03-04T08:01:22;1.10;99.90
7194;DHT22;3638;48.820;9.244;2023-03-04T08:03:50;1.10;99.90
7194;DHT22;3638;48.820;9.244;2023-03-04T08:06:19;1.10;99.90
7194;DHT22;3638;48.820;9.244;2023-03-04T08:08:48;1.10;99.90
7194;DHT22;3638;48.820;9.244;2023-03-04T08:11:17;1.20;99.90
7194;DHT22;3638;48.820;9.244;2023-03-04T08:13:46;1.20;99.90
7194;DHT22;3638;48.820;9.244;2023-03-04T08:16:14;1.40;99.90
7194;DHT22;3638;48.820;9.244;2023-03-04T08:18:42;1.50;99.90
7194;DHT22;3638;48.820;9.244;2023-03-04T08:21:10;1.40;99.90
7194;DHT22;3638;48.820;9.244;2023-03-04T08:23:38;1.40;99.90
7194;DHT22;3638;48.820;9.244;2023-03-04T08:26:08;1.20;99.90
7194;DHT22;3638;48.820;9.244;2023-03-04T08:28:37;1.30;99.90
7194;DHT22;3638;48.820;9.244;2023-03-04T08:31:04;1.40;99.90
7194;DHT22;3638;48.820;9.244;2023-03-04T08:33:32;1.60;99.90
7194;DHT22;3638;48.820;9.244;2023-03-04T08:35:59;1.60;99.90
7194;DHT22;3638;48.820;9.244;2023-03-04T08:38:26;3.90;99.90
7194;DHT22;3638;48.820;9.244;2023-03-04T08:40:53;1.40;99.90
7194;DHT22;3638;48.820;9.244;2023-03-04T08:43:23;1.30;99.90
7194;DHT22;3638;48.820;9.244;2023-03-04T08:45:51;1.20;99.90
7194;DHT22;3638;48.820;9.244;2023-03-04T08:48:19;1.40;99.90
7194;DHT22;3638;48.820;9.244;2023-03-04T08:50:50;1.40;99.90
7194;DHT22;3638;48.820;9.244;2023-03-04T08:53:18;1.50;99.90
7194;DHT22;3638;48.820;9.244;2023-03-04T08:55:46;1.50;99.90
7194;DHT22;3638;48.820;9.244;2023-03-04T08:58:13;1.50;99.90
7194;DHT22;3638;48.820;9.244;2023-03-04T09:00:44;1.50;99.90
7194;DHT22;3638;48.820;9.244;2023-03-04T09:03:13;1.40;99.90
7194;DHT22;3638;48.820;9.244;2023-03-04T09:05:41;1.70;99.90
7194;DHT22;3638;48.820;9.244;2023-03-04T09:08:08;1.70;99.90
7194;DHT22;3638;48.820;9.244;2023-03-04T09:10:34;1.70;99.90
7194;DHT22;3638;48.820;9.244;2023-03-04T09:13:02;1.80;99.90
7194;DHT22;3638;48.820;9.244;2023-03-04T09:15:30;1.90;99.90
7194;DHT22;3638;48.820;9.244;2023-03-04T09:18:02;1.80;99.90
7194;DHT22;3638;48.820;9.244;2023-03-04T09:20:29;2.10;99.90
7194;DHT22;3638;48.820;9.244;2023-03-04T09:22:57;2.30;99.90
7194;DHT22;3638;48.820;9.244;2023-03-04T09:25:24;2.50;99.90
7194;DHT22;3638;48.820;9.244;2023-03-04T09:27:50;2.70;99.90
7194;DHT22;3638;48.820;9.244;2023-03-04T09:30:18;2.90;99.90
7194;DHT22;3638;48.820;9.244;2023-03-04T09:32:46;3.10;99.90
7194;DHT22;3638;48.820;9.244;2023-03-04T09:35:14;3.00;99.90
7194;DHT22;3638;48.820;9.244;2023-03-04T09:37:41;3.00;99.90
7194;DHT22;3638;48.820;9.244;2023-03-04T09:40:16;3.00;99.90
7194;DHT22;3638;48.820;9.244;2023-03-04T09:42:47;3.80;99.90
7194;DHT22;3638;48.820;9.244;2023-03-04T09:45:18;3.50;99.90
7194;DHT22;3638;48.820;9.244;2023-03-04T09:47:48;3.10;99.90
7194;DHT22;3638;48.820;9.244;2023-03-04T09:50:19;3.20;99.90
7194;DHT22;3638;48.820;9.244;2023-03-04T09:52:59;3.20;99.90
7194;DHT22;3638;48.820;9.244;2023-03-04T09:55:34;2.80;99.90
7194;DHT22;3638;48.820;9.244;2023-03-04T09:58:08;2.70;99.90
7194;DHT22;3638;48.820;9.244;2023-03-04T10:00:43;2.70;99.90
7194;DHT22;3638;48.820;9.244;2023-03-04T10:03:15;2.80;99.90
7194;DHT22;3638;48.820;9.244;2023-03-04T10:05:54;3.20;99.90
7194;DHT22;3638;48.820;9.244;2023-03-04T10:08:36;3.60;99.90
7194;DHT22;3638;48.820;9.244;2023-03-04T10:11:12;3.70;99.90
7194;DHT22;3638;48.820;9.244;2023-03-04T10:13:49;3.80;99.90
7194;DHT22;3638;48.820;9.244;2023-03-04T10:16:23;3.90;99.90
7194;DHT22;3638;48.820;9.244;2023-03-04T10:18:56;3.80;99.90
7194;DHT22;3638;48.820;9.244;2023-03-04T10:21:31;4.00;99.90
7194;DHT22;3638;48.820;9.244;2023-03-04T10:24:04;4.10;99.90
7194;DHT22;3638;48.820;9.244;2023-03-04T10:26:35;4.20;99.90
7194;DHT22;3638;48.820;9.244;2023-03-04T10:29:02;4.40;99.90
7194;DHT22;3638;48.820;9.244;2023-03-04T10:31:33;4.50;99.90
7194;DHT22;3638;48.820;9.244;2023-03-04T10:34:01;4.50;99.90
7194;DHT22;3638;48.820;9.244;2023-03-04T10:36:40;4.30;99.90
7194;DHT22;3638;48.820;9.244;2023-03-04T10:39:16;4.10;99.90
7194;DHT22;3638;48.820;9.244;2023-03-04T10:41:52;3.90;99.90
7194;DHT22;3638;48.820;9.244;2023-03-04T10:44:22;4.30;99.90
7194;DHT22;3638;48.820;9.244;2023-03-04T10:46:50;4.20;99.90
7194;DHT22;3638;48.820;9.244;2023-03-04T10:49:19;4.20;99.90
7194;DHT22;3638;48.820;9.244;2023-03-04T10:51:49;4.60;99.90
7194;DHT22;3638;48.820;9.244;2023-03-04T10:54:23;4.70;99.90
7194;DHT22;3638;48.820;9.244;2023-03-04T10:56:55;4.60;99.90
7194;DHT22;3638;48.820;9.244;2023-03-04T10:59:32;4.50;99.90
7194;DHT22;3638;48.820;9.244;2023-03-04T11:02:24;4.60;99.90
7194;DHT22;3638;48.820;9.244;2023-03-04T11:05:05;4.60;99.90
7194;DHT22;3638;48.820;9.244;2023-03-04T11:07:40;4.60;99.90
7194;DHT22;3638;48.820;9.244;2023-03-04T11:10:10;4.30;99.90
7194;DHT22;3638;48.820;9.244;2023-03-04T11:12:47;4.20;99.90
7194;DHT22;3638;48.820;9.244;2023-03-04T11:15:17;4.00;99.90
7194;DHT22;3638;48.820;9.244;2023-03-04T11:17:51;3.90;99.90
7194;DHT22;3638;48.820;9.244;2023-03-04T11:20:30;4.00;99.90
7194;DHT22;3638;48.820;9.244;2023-03-04T11:23:04;4.00;99.90
7194;DHT22;3638;48.820;9.244;2023-03-04T11:25:39;4.00;99.90
7194;DHT22;3638;48.820;9.244;2023-03-04T11:28:13;4.30;99.90
7194;DHT22;3638;48.820;9.244;2023-03-04T11:30:45;4.40;99.90
7194;DHT22;3638;48.820;9.244;2023-03-04T11:33:21;4.50;99.90
7194;DHT22;3638;48.820;9.244;2023-03-04T11:35:56;4.60;99.90
7194;DHT22;3638;48.820;9.244;2023-03-04T11:38:35;4.70;99.90
7194;DHT22;3638;48.820;9.244;2023-03-04T11:41:09;4.50;99.90
7194;DHT22;3638;48.820;9.244;2023-03-04T11:43:40;4.40;99.90
7194;DHT22;3638;48.820;9.244;2023-03-04T11:49:41;4.50;99.90
7194;DHT22;3638;48.820;9.244;2023-03-04T11:52:30;4.50;99.90
7194;DHT22;3638;48.820;9.244;2023-03-04T11:55:26;4.70;99.90
7194;DHT22;3638;48.820;9.244;2023-03-04T11:58:12;4.70;99.90
7194;DHT22;3638;48.820;9.244;2023-03-04T12:00:48;4.60;99.90
7194;DHT22;3638;48.820;9.244;2023-03-04T12:03:37;4.80;99.90
7194;DHT22;3638;48.820;9.244;2023-03-04T12:06:13;4.90;99.90
7194;DHT22;3638;48.820;9.244;2023-03-04T12:08:59;4.90;99.90
7194;DHT22;3638;48.820;9.244;2023-03-04T12:11:36;4.60;99.90
7194;DHT22;3638;48.820;9.244;2023-03-04T12:14:20;4.60;99.90
7194;DHT22;3638;48.820;9.244;2023-03-04T12:17:08;4.50;99.90
7194;DHT22;3638;48.820;9.244;2023-03-04T12:19:58;4.70;99.90
7194;DHT22;3638;48.820;9.244;2023-03-04T12:22:43;4.80;99.90
7194;DHT22;3638;48.820;9.244;2023-03-04T12:25:21;5.00;99.90
7194;DHT22;3638;48.820;9.244;2023-03-04T12:28:02;5.00;99.90
7194;DHT22;3638;48.820;9.244;2023-03-04T12:30:47;4.70;99.90
7194;DHT22;3638;48.820;9.244;2023-03-04T12:33:27;4.70;99.90
7194;DHT22;3638;48.820;9.244;2023-03-04T12:36:07;4.90;99.90
7194;DHT22;3638;48.820;9.244;2023-03-04T12:38:47;4.80;99.90
7194;DHT22;3638;48.820;9.244;2023-03-04T12:41:33;4.60;99.90
7194;DHT22;3638;48.820;9.244;2023-03-04T12:44:13;4.50;99.90
7194;DHT22;3638;48.820;9.244;2023-03-04T12:50:02;4.60;99.90
7194;DHT22;3638;48.820;9.244;2023-03-04T12:52:47;4.60;99.90
7194;DHT22;3638;48.820;9.244;2023-03-04T12:55:25;4.60;99.90
7194;DHT22;3638;48.820;9.244;2023-03-04T12:57:57;4.50;99.90
7194;DHT22;3638;48.820;9.244;2023-03-04T13:00:36;4.50;99.90
7194;DHT22;3638;48.820;9.244;2023-03-04T13:03:13;4.70;99.90
7194;DHT22;3638;48.820;9.244;2023-03-04T13:05:52;4.50;99.90
7194;DHT22;3638;48.820;9.244;2023-03-04T13:08:30;4.80;99.90
7194;DHT22;3638;48.820;9.244;2023-03-04T13:14:03;4.90;99.90
7194;DHT22;3638;48.820;9.244;2023-03-04T13:16:36;4.80;99.90
7194;DHT22;3638;48.820;9.244;2023-03-04T13:22:28;4.30;99.90
7194;DHT22;3638;48.820;9.244;2023-03-04T13:28:18;4.10;99.90
7194;DHT22;3638;48.820;9.244;2023-03-04T13:31:15;4.20;99.90
7194;DHT22;3638;48.820;9.244;2023-03-04T13:34:00;4.10;99.90
7194;DHT22;3638;48.820;9.244;2023-03-04T13:39:25;3.50;99.90
7194;DHT22;3638;48.820;9.244;2023-03-04T13:41:57;4.30;99.90
7194;DHT22;3638;48.820;9.244;2023-03-04T13:47:39;4.40;99.90
7194;DHT22;3638;48.820;9.244;2023-03-04T13:50:39;4.60;99.90
7194;DHT22;3638;48.820;9.244;2023-03-04T13:53:36;4.40;99.90
7194;DHT22;3638;48.820;9.244;2023-03-04T13:56:23;4.40;99.90
7194;DHT22;3638;48.820;9.244;2023-03-04T13:59:04;4.60;99.90
7194;DHT22;3638;48.820;9.244;2023-03-04T14:01:57;4.50;99.90
7194;DHT22;3638;48.820;9.244;2023-03-04T14:04:32;4.40;99.90
7194;DHT22;3638;48.820;9.244;2023-03-04T14:07:15;4.40;99.90
7194;DHT22;3638;48.820;9.244;2023-03-04T14:09:53;4.50;99.90
7194;DHT22;3638;48.820;9.244;2023-03-04T14:12:22;4.50;99.90
7194;DHT22;3638;48.820;9.244;2023-03-04T14:14:52;4.30;99.90
7194;DHT22;3638;48.820;9.244;2023-03-04T14:17:23;4.30;99.90
7194;DHT22;3638;48.820;9.244;2023-03-04T14:19:51;4.40;99.90
7194;DHT22;3638;48.820;9.244;2023-03-04T14:22:23;4.40;99.90
7194;DHT22;3638;48.820;9.244;2023-03-04T14:24:55;4.50;99.90
7194;DHT22;3638;48.820;9.244;2023-03-04T14:27:24;4.40;99.90
7194;DHT22;3638;48.820;9.244;2023-03-04T14:29:54;4.20;99.90
7194;DHT22;3638;48.820;9.244;2023-03-04T14:32:23;4.00;99.90
7194;DHT22;3638;48.820;9.244;2023-03-04T14:34:50;4.10;99.90
7194;DHT22;3638;48.820;9.244;2023-03-04T14:37:25;4.10;99.90
7194;DHT22;3638;48.820;9.244;2023-03-04T14:39:55;4.00;99.90
7194;DHT22;3638;48.820;9.244;2023-03-04T14:42:25;5.50;99.90
7194;DHT22;3638;48.820;9.244;2023-03-04T14:44:57;3.70;99.90
7194;DHT22;3638;48.820;9.244;2023-03-04T14:47:34;3.70;99.90
7194;DHT22;3638;48.820;9.244;2023-03-04T14:50:05;3.70;99.90
7194;DHT22;3638;48.820;9.244;2023-03-04T14:52:36;3.90;99.90
7194;DHT22;3638;48.820;9.244;2023-03-04T14:55:18;6.10;99.90
7194;DHT22;3638;48.820;9.244;2023-03-04T14:57:48;4.20;99.90
7194;DHT22;3638;48.820;9.244;2023-03-04T15:00:28;4.00;99.90
7194;DHT22;3638;48.820;9.244;2023-03-04T15:02:58;4.10;99.90
7194;DHT22;3638;48.820;9.244;2023-03-04T15:05:27;4.10;99.90
7194;DHT22;3638;48.820;9.244;2023-03-04T15:07:59;4.10;99.90
7194;DHT22;3638;48.820;9.244;2023-03-04T15:10:29;4.00;99.90
7194;DHT22;3638;48.820;9.244;2023-03-04T15:12:59;4.00;99.90
7194;DHT22;3638;48.820;9.244;2023-03-04T15:15:34;4.10;99.90
7194;DHT22;3638;48.820;9.244;2023-03-04T15:18:19;4.00;99.90
7194;DHT22;3638;48.820;9.244;2023-03-04T15:20:53;3.80;99.90
7194;DHT22;3638;48.820;9.244;2023-03-04T15:23:23;3.60;99.90
7194;DHT22;3638;48.820;9.244;2023-03-04T15:25:52;3.70;99.90
7194;DHT22;3638;48.820;9.244;2023-03-04T15:28:20;3.60;99.90
7194;DHT22;3638;48.820;9.244;2023-03-04T15:30:48;3.40;99.90
7194;DHT22;3638;48.820;9.244;2023-03-04T15:33:15;3.40;99.90
7194;DHT22;3638;48.820;9.244;2023-03-04T15:35:51;3.30;99.90
7194;DHT22;3638;48.820;9.244;2023-03-04T15:38:19;3.30;99.90
7194;DHT22;3638;48.820;9.244;2023-03-04T15:40:48;3.20;99.90
7194;DHT22;3638;48.820;9.244;2023-03-04T15:43:17;3.30;99.90
7194;DHT22;3638;48.820;9.244;2023-03-04T15:45:47;3.40;99.90
7194;DHT22;3638;48.820;9.244;2023-03-04T15:48:16;3.50;99.90
7194;DHT22;3638;48.820;9.244;2023-03-04T15:50:46;3.50;99.90
7194;DHT22;3638;48.820;9.244;2023-03-04T15:53:16;3.50;99.90
7194;DHT22;3638;48.820;9.244;2023-03-04T15:55:45;3.40;99.90
7194;DHT22;3638;48.820;9.244;2023-03-04T15:58:14;3.50;99.90
7194;DHT22;3638;48.820;9.244;2023-03-04T16:00:41;3.40;99.90
7194;DHT22;3638;48.820;9.244;2023-03-04T16:03:13;3.50;99.90
7194;DHT22;3638;48.820;9.244;2023-03-04T16:05:42;3.50;99.90
7194;DHT22;3638;48.820;9.244;2023-03-04T16:08:12;3.50;99.90
7194;DHT22;3638;48.820;9.244;2023-03-04T16:10:41;3.60;99.90
7194;DHT22;3638;48.820;9.244;2023-03-04T16:13:13;3.60;99.90
7194;DHT22;3638;48.820;9.244;2023-03-04T16:15:42;3.50;99.90
7194;DHT22;3638;48.820;9.244;2023-03-04T16:18:10;3.60;99.90
7194;DHT22;3638;48.820;9.244;2023-03-04T16:20:40;3.80;99.90
7194;DHT22;3638;48.820;9.244;2023-03-04T16:23:12;3.70;99.90
7194;DHT22;3638;48.820;9.244;2023-03-04T16:25:42;4.40;99.90
7194;DHT22;3638;48.820;9.244;2023-03-04T16:28:12;3.70;99.90
7194;DHT22;3638;48.820;9.244;2023-03-04T16:30:40;3.60;99.90
7194;DHT22;3638;48.820;9.244;2023-03-04T16:33:08;3.60;99.90
7194;DHT22;3638;48.820;9.244;2023-03-04T16:35:36;3.50;99.90
7194;DHT22;3638;48.820;9.244;2023-03-04T16:38:04;3.50;99.90
7194;DHT22;3638;48.820;9.244;2023-03-04T16:40:32;3.70;99.90
7194;DHT22;3638;48.820;9.244;2023-03-04T16:42:59;3.20;99.90
7194;DHT22;3638;48.820;9.244;2023-03-04T16:45:27;3.60;99.90
7194;DHT22;3638;48.820;9.244;2023-03-04T16:47:55;3.70;99.90
7194;DHT22;3638;48.820;9.244;2023-03-04T16:50:26;3.60;99.90
7194;DHT22;3638;48.820;9.244;2023-03-04T16:52:55;3.50;99.90
7194;DHT22;3638;48.820;9.244;2023-03-04T16:55:24;3.50;99.90
7194;DHT22;3638;48.820;9.244;2023-03-04T16:57:55;3.60;99.90
7194;DHT22;3638;48.820;9.244;2023-03-04T17:00:27;3.50;99.90